Time;durP1;ratioP1;P1;durP2;ratioP2;P2;SDS_P1;SDS_P2;PMS_P1;PMS_P2;Temp;Humidity;BMP_temperature;BMP_pressure;BME280_temperature;BME280_humidity;BME280_pressure;Samples;Min_cycle;Max_cycle;Signal;HPM_P1;HPM_P2
2022/05/11 00:01:39;;;;;;;24.30;3.97;;;;;;;13.90;71.91;101206.78;5028027;28;20034;-33
2022/05/11 00:04:06;;;;;;;23.05;3.63;;;;;;;13.85;72.28;101203.84;5019119;28;20456;-34
2022/05/11 00:06:32;;;;;;;23.77;4.00;;;;;;;13.87;72.51;101198.19;5018258;28;20022;-35
2022/05/11 00:08:57;;;;;;;19.17;3.42;;;;;;;13.88;72.63;101202.59;5021069;28;20033;-34
2022/05/11 00:11:27;;;;;;;21.52;4.10;;;;;;;13.90;72.74;101203.22;5031970;28;20471;-34
2022/05/11 00:13:53;;;;;;;24.08;3.78;;;;;;;13.90;73.00;101209.50;5022200;28;20081;-35
2022/05/11 00:16:18;;;;;;;15.88;3.03;;;;;;;13.88;73.20;101208.84;5022250;28;20030;-34
2022/05/11 00:18:44;;;;;;;15.80;3.45;;;;;;;13.82;73.35;101196.06;5022379;28;20410;-34
2022/05/11 00:21:10;;;;;;;20.80;3.65;;;;;;;13.81;73.52;101191.72;5029459;28;20022;-34
2022/05/11 00:23:35;;;;;;;18.38;3.55;;;;;;;13.78;73.67;101192.94;5022691;28;20457;-35
2022/05/11 00:26:01;;;;;;;19.15;4.05;;;;;;;13.80;73.79;101195.47;5021856;28;20140;-34
2022/05/11 00:28:26;;;;;;;19.70;3.47;;;;;;;13.72;73.36;101196.44;5020931;28;20512;-33
2022/05/11 00:30:52;;;;;;;14.43;3.40;;;;;;;13.74;73.52;101196.22;5025626;28;20032;-35
2022/05/11 00:33:18;;;;;;;9.18;2.60;;;;;;;13.69;73.39;101190.53;5024351;28;20026;-32
2022/05/11 00:35:45;;;;;;;11.73;2.97;;;;;;;13.73;73.27;101194.56;5028181;28;20045;-34
2022/05/11 00:38:11;;;;;;;24.98;3.53;;;;;;;13.75;73.23;101196.03;5023319;28;20080;-34
2022/05/11 00:40:47;;;;;;;17.73;3.70;;;;;;;13.78;72.99;101192.94;5021276;28;20052;-35
2022/05/11 00:43:12;;;;;;;19.45;3.33;;;;;;;13.80;72.87;101190.03;5025185;28;20117;-34
2022/05/11 00:45:42;;;;;;;20.00;3.85;;;;;;;13.78;72.76;101184.00;5027296;28;20125;-33
2022/05/11 00:50:55;;;;;;;24.20;3.90;;;;;;;13.77;72.79;101185.00;5035207;28;20045;-34
2022/05/11 00:53:21;;;;;;;16.90;3.60;;;;;;;13.74;72.70;101175.41;5019111;28;20034;-34
2022/05/11 00:55:56;;;;;;;14.85;3.03;;;;;;;13.75;72.65;101171.69;5020554;28;20026;-34
2022/05/11 00:58:38;;;;;;;23.35;3.75;;;;;;;13.74;72.44;101164.59;5018357;28;20042;-34
2022/05/11 01:01:04;;;;;;;20.10;3.38;;;;;;;13.73;72.32;101160.22;5018658;28;20057;-35
2022/05/11 01:03:33;;;;;;;13.43;3.47;;;;;;;13.73;72.13;101160.22;5031428;28;20128;-34
2022/05/11 01:05:59;;;;;;;15.77;3.15;;;;;;;13.75;72.06;101155.47;5039397;28;20033;-34
2022/05/11 01:08:24;;;;;;;20.75;3.30;;;;;;;13.72;71.73;101145.03;5021438;28;20048;-35
2022/05/11 01:10:50;;;;;;;17.92;3.55;;;;;;;13.74;71.89;101152.94;5017775;28;20108;-35
2022/05/11 01:13:16;;;;;;;21.42;3.53;;;;;;;13.76;71.94;101140.88;5018064;28;20026;-35
2022/05/11 01:15:45;;;;;;;17.50;3.63;;;;;;;13.78;71.54;101138.00;5018712;28;20037;-35
2022/05/11 01:18:11;;;;;;;26.75;3.50;;;;;;;13.78;71.17;101144.25;5019121;28;20025;-34
2022/05/11 01:20:37;;;;;;;19.92;3.45;;;;;;;13.76;71.34;101135.47;5019833;28;20519;-35
2022/05/11 01:23:11;;;;;;;21.90;2.92;;;;;;;13.75;71.01;101128.41;5026623;28;20048;-34
2022/05/11 01:25:36;;;;;;;15.25;3.00;;;;;;;13.75;71.21;101141.09;5036972;28;20022;-33
2022/05/11 01:28:03;;;;;;;16.92;3.17;;;;;;;13.74;71.05;101137.53;5021885;28;20488;-34
2022/05/11 01:30:28;;;;;;;22.58;3.45;;;;;;;13.77;70.50;101141.72;5018113;28;20143;-33
2022/05/11 01:32:55;;;;;;;22.15;3.50;;;;;;;13.76;70.54;101145.47;5023980;28;20429;-34
2022/05/11 01:35:47;;;;;;;10.20;3.08;;;;;;;13.77;70.44;101131.75;5037396;28;20581;-36
2022/05/11 01:38:28;;;;;;;19.08;3.25;;;;;;;13.80;70.18;101135.94;5036750;28;20053;-33
2022/05/11 01:40:53;;;;;;;24.10;3.35;;;;;;;13.87;70.01;101133.28;5035068;28;20026;-33
2022/05/11 01:43:21;;;;;;;14.38;2.70;;;;;;;13.83;69.65;101130.97;5018579;28;20094;-35
2022/05/11 01:45:47;;;;;;;11.98;2.88;;;;;;;13.83;69.92;101120.13;5018995;28;20400;-33
2022/05/11 01:48:12;;;;;;;15.48;3.20;;;;;;;13.84;69.51;101132.63;5016889;28;20057;-34
2022/05/11 01:50:37;;;;;;;18.67;3.30;;;;;;;13.89;69.80;101142.03;5022618;28;20045;-35
2022/05/11 01:53:04;;;;;;;20.48;3.17;;;;;;;13.87;69.30;101135.97;5025428;28;20029;-34
2022/05/11 01:55:29;;;;;;;13.48;3.03;;;;;;;13.86;68.89;101128.91;5018866;28;20037;-34
2022/05/11 01:57:55;;;;;;;13.05;2.70;;;;;;;13.90;68.83;101124.75;5017702;28;20030;-34
2022/05/11 02:00:20;;;;;;;12.73;3.03;;;;;;;13.93;68.34;101124.34;5018173;28;20018;-35
2022/05/11 02:02:45;;;;;;;15.65;3.00;;;;;;;13.94;67.95;101120.63;5018181;28;20029;-34
2022/05/11 02:07:55;;;;;;;20.08;2.70;;;;;;;13.87;67.31;101117.88;5018413;28;20045;-35
2022/05/11 02:10:25;;;;;;;18.98;2.60;;;;;;;13.80;67.43;101125.94;5018447;28;20022;-34
2022/05/11 02:12:50;;;;;;;22.65;3.22;;;;;;;13.84;67.24;101108.28;5017885;28;20034;-34
2022/05/11 02:15:17;;;;;;;11.73;2.58;;;;;;;13.81;66.85;101114.09;5016564;28;20034;-34
2022/05/11 02:17:42;;;;;;;13.65;2.58;;;;;;;13.86;67.00;101112.66;5017544;28;20056;-35
2022/05/11 02:20:10;;;;;;;11.55;2.95;;;;;;;13.87;66.92;101101.63;5017438;28;20026;-34
2022/05/11 02:22:35;;;;;;;14.87;2.23;;;;;;;13.86;66.65;101101.84;5017838;28;20347;-34
2022/05/11 02:25:00;;;;;;;12.73;2.60;;;;;;;13.79;66.33;101102.63;5033884;28;20342;-34
2022/05/11 02:27:26;;;;;;;14.02;2.92;;;;;;;13.72;66.04;101096.34;5006574;28;20050;-34
2022/05/11 02:29:51;;;;;;;13.35;2.70;;;;;;;13.78;66.03;101094.72;5015268;28;20030;-34
2022/05/11 02:32:16;;;;;;;13.98;2.33;;;;;;;13.77;65.90;101090.31;5016293;28;20026;-35
2022/05/11 02:37:25;;;;;;;13.70;2.55;;;;;;;13.72;66.00;101090.94;5014526;28;20052;-80
2022/05/11 02:39:51;;;;;;;10.82;2.25;;;;;;;13.76;65.77;101099.47;4998409;28;20374;-80
2022/05/11 02:42:18;;;;;;;12.55;2.17;;;;;;;13.75;65.82;101095.94;5017868;28;20030;-80
2022/05/11 02:44:44;;;;;;;15.27;2.42;;;;;;;13.79;65.89;101096.38;5006192;28;20370;-79
2022/05/11 02:47:10;;;;;;;14.55;3.03;;;;;;;13.76;65.74;101089.50;4994804;28;20029;-79
2022/05/11 02:49:35;;;;;;;14.88;2.42;;;;;;;13.74;65.79;101088.84;4996049;28;20056;-79
2022/05/11 02:52:00;;;;;;;13.15;2.40;;;;;;;13.73;65.71;101084.47;4997156;28;20323;-79
2022/05/11 02:54:26;;;;;;;8.98;2.08;;;;;;;13.75;65.88;101082.41;4995237;28;20474;-79
2022/05/11 02:56:51;;;;;;;20.80;2.65;;;;;;;13.76;66.20;101080.53;4996402;28;20033;-78
2022/05/11 02:59:16;;;;;;;10.48;2.35;;;;;;;13.74;65.64;101088.84;4995506;28;20034;-79
2022/05/11 03:01:41;;;;;;;13.90;2.97;;;;;;;13.72;65.60;101090.94;4994929;28;20044;-79
2022/05/11 03:04:07;;;;;;;13.20;2.40;;;;;;;13.75;65.59;101084.28;5006683;28;20179;-79
2022/05/11 03:06:33;;;;;;;12.93;2.25;;;;;;;13.70;65.61;101082.16;4986327;28;20454;-79
2022/05/11 03:08:58;;;;;;;15.65;2.28;;;;;;;13.76;65.70;101081.38;4993745;28;20029;-78
2022/05/11 03:11:24;;;;;;;12.85;2.47;;;;;;;13.75;65.52;101078.88;4996811;28;20026;-76
2022/05/11 03:13:50;;;;;;;18.95;2.53;;;;;;;13.75;65.64;101074.31;4994428;28;20033;-76
2022/05/11 03:16:15;;;;;;;12.93;2.72;;;;;;;13.74;65.68;101069.06;4997984;28;20058;-79
2022/05/11 03:18:41;;;;;;;13.10;2.30;;;;;;;13.74;65.62;101072.63;5003340;28;20081;-78
2022/05/11 03:21:06;;;;;;;19.98;3.15;;;;;;;13.73;65.55;101065.53;4986472;28;20042;-77
2022/05/11 03:23:32;;;;;;;9.90;2.17;;;;;;;13.75;65.51;101073.47;5018103;28;20120;-80
2022/05/11 03:25:57;;;;;;;8.98;1.88;;;;;;;13.73;65.48;101076.38;5003209;28;20023;-80
2022/05/11 03:28:23;;;;;;;15.32;2.45;;;;;;;13.73;65.45;101065.53;5005968;28;20042;-79
2022/05/11 03:30:49;;;;;;;13.98;2.40;;;;;;;13.73;65.42;101065.53;4993578;28;20026;-78
2022/05/11 03:36:00;;;;;;;11.95;2.20;;;;;;;13.73;65.63;101065.53;5006507;28;20510;-79
2022/05/11 03:38:25;;;;;;;13.43;2.50;;;;;;;13.73;65.28;101059.31;5002564;28;20049;-79
2022/05/11 03:40:51;;;;;;;14.68;2.90;;;;;;;13.67;65.23;101060.94;4995606;28;20027;-78
2022/05/11 03:43:16;;;;;;;15.57;2.92;;;;;;;13.69;65.34;101048.06;4996513;28;20109;-79
2022/05/11 03:45:41;;;;;;;11.50;2.60;;;;;;;13.69;65.20;101050.75;5001337;28;20386;-79
2022/05/11 03:48:07;;;;;;;16.27;1.95;;;;;;;13.66;64.71;101042.19;4998899;28;20482;-79
2022/05/11 03:50:33;;;;;;;15.45;2.03;;;;;;;13.64;64.86;101045.09;4996482;28;20069;-78
2022/05/11 03:52:59;;;;;;;13.25;2.25;;;;;;;13.66;64.89;101043.00;5002504;28;20041;-78
2022/05/11 03:55:25;;;;;;;8.98;1.73;;;;;;;13.69;64.56;101042.66;5004315;28;20030;-78
2022/05/11 03:57:50;;;;;;;10.10;2.35;;;;;;;13.66;64.34;101040.31;5005559;28;20050;-78
2022/05/11 04:00:23;;;;;;;9.20;2.22;;;;;;;13.65;64.12;101038.66;5003203;28;20495;-78
2022/05/11 04:02:50;;;;;;;12.23;2.03;;;;;;;13.64;64.04;101049.66;5003115;28;20045;-79
2022/05/11 04:05:17;;;;;;;14.82;1.92;;;;;;;13.68;64.29;101043.66;5002431;28;20034;-78
2022/05/11 04:07:42;;;;;;;11.48;2.10;;;;;;;13.63;64.23;101043.41;4999655;28;20033;-78
2022/05/11 04:10:09;;;;;;;14.23;2.03;;;;;;;13.62;63.85;101044.47;5006399;28;20034;-79
2022/05/11 04:12:35;;;;;;;10.00;1.77;;;;;;;13.61;63.85;101042.78;5017914;28;20010;-78
2022/05/11 04:15:01;;;;;;;8.65;1.50;;;;;;;13.62;63.86;101041.75;5004495;28;20030;-77
2022/05/11 04:17:26;;;;;;;13.48;2.17;;;;;;;13.62;63.61;101036.34;4994277;28;20148;-78
2022/05/11 04:19:51;;;;;;;9.52;1.90;;;;;;;13.63;63.71;101048.00;4999064;28;20054;-80
2022/05/11 04:22:17;;;;;;;11.73;2.13;;;;;;;13.56;63.40;101034.41;5000575;28;20026;-79
2022/05/11 04:24:42;;;;;;;17.08;1.90;;;;;;;13.56;63.33;101037.13;5002045;28;20493;-78
2022/05/11 04:27:08;;;;;;;8.98;1.70;;;;;;;13.54;63.58;101033.78;5002961;28;20076;-78
2022/05/11 04:29:35;;;;;;;9.05;1.52;;;;;;;13.50;63.29;101037.91;5000453;28;20177;-79
2022/05/11 04:32:00;;;;;;;9.70;1.70;;;;;;;13.56;63.57;101031.72;4984063;28;20027;-78
2022/05/11 04:34:26;;;;;;;10.35;2.00;;;;;;;13.53;63.29;101041.06;5001895;28;20073;-78
2022/05/11 04:36:52;;;;;;;8.10;1.70;;;;;;;13.54;63.37;101034.63;4995120;28;20505;-80
2022/05/11 04:39:17;;;;;;;11.88;1.98;;;;;;;13.56;63.19;101032.56;4993410;28;20034;-80
2022/05/11 04:41:43;;;;;;;5.05;1.25;;;;;;;13.62;63.27;101025.53;4994269;28;20165;-80
2022/05/11 04:44:08;;;;;;;16.63;3.30;;;;;;;13.67;62.96;101035.75;4994288;28;20382;-81
2022/05/11 04:46:36;;;;;;;10.85;1.70;;;;;;;13.66;62.47;101036.78;4992107;28;20034;-79
2022/05/11 04:49:16;;;;;;;10.65;1.70;;;;;;;13.64;62.60;101036.13;4993417;28;20474;-80
2022/05/11 04:51:45;;;;;;;8.10;1.55;;;;;;;13.58;62.98;101046.69;4992547;28;20019;-80
2022/05/11 04:54:11;;;;;;;11.45;1.88;;;;;;;13.64;63.13;101039.69;4994959;28;20109;-80
2022/05/11 04:56:40;;;;;;;10.48;1.83;;;;;;;13.61;63.11;101045.47;4991736;28;20452;-81
2022/05/11 04:59:05;;;;;;;8.48;1.38;;;;;;;13.61;63.04;101040.94;4993856;28;20437;-78
2022/05/11 05:01:32;;;;;;;4.85;1.85;;;;;;;13.62;62.84;101039.06;4994128;28;20026;-78
2022/05/11 05:03:58;;;;;;;11.48;1.95;;;;;;;13.69;62.81;101037.25;4992861;28;20125;-80
2022/05/11 05:06:23;;;;;;;15.23;2.65;;;;;;;13.74;62.67;101045.56;4984655;28;20117;-79
2022/05/11 05:08:51;;;;;;;15.60;1.77;;;;;;;13.76;62.62;101038.09;4977579;28;20027;-80
2022/05/11 05:11:16;;;;;;;10.40;1.60;;;;;;;13.72;62.82;101036.84;4978298;28;20034;-79
2022/05/11 05:13:41;;;;;;;9.32;2.03;;;;;;;13.71;62.69;101040.56;4983688;28;20388;-80
2022/05/11 05:16:07;;;;;;;13.90;2.22;;;;;;;13.68;62.75;101040.94;5007510;28;20034;-80
2022/05/11 05:18:33;;;;;;;13.57;1.83;;;;;;;13.69;63.32;101048.06;5004906;28;20046;-80
2022/05/11 05:20:58;;;;;;;15.27;2.55;;;;;;;13.69;63.13;101053.47;5001713;28;20536;-81
2022/05/11 05:23:24;;;;;;;14.43;1.98;;;;;;;13.72;63.33;101053.06;4991208;28;20027;-80
2022/05/11 05:25:49;;;;;;;13.40;2.17;;;;;;;13.80;63.52;101049.38;4991015;28;20053;-80
2022/05/11 05:31:08;;;;;;;20.85;2.10;;;;;;;13.97;63.21;101045.31;4995779;28;20045;-82
2022/05/11 05:33:34;;;;;;;16.17;2.00;;;;;;;14.05;62.97;101055.97;4998045;28;20177;-81
2022/05/11 05:36:00;;;;;;;12.38;1.63;;;;;;;14.14;62.49;101056.66;4992132;28;20025;-81
2022/05/11 05:38:26;;;;;;;15.57;2.65;;;;;;;14.20;62.40;101049.59;4990834;28;20026;-82
2022/05/11 05:40:52;;;;;;;12.68;2.15;;;;;;;14.28;62.22;101052.13;4972085;28;20383;-78
2022/05/11 05:43:17;;;;;;;11.75;1.88;;;;;;;14.44;61.93;101050.94;4988409;28;20078;-80
2022/05/11 05:45:53;;;;;;;13.02;2.10;;;;;;;14.41;62.06;101059.47;4993207;28;20030;-79
2022/05/11 05:48:20;;;;;;;10.00;1.70;;;;;;;14.44;62.33;101053.66;4990926;28;20030;-79
2022/05/11 05:50:45;;;;;;;15.05;2.20;;;;;;;14.38;62.56;101043.66;4989617;28;20030;-80
2022/05/11 05:53:11;;;;;;;10.82;2.00;;;;;;;14.40;62.81;101049.66;4990450;28;20033;-79
2022/05/11 05:55:36;;;;;;;10.95;1.88;;;;;;;14.31;63.07;101050.91;4991253;28;20092;-81
2022/05/11 05:58:03;;;;;;;10.57;1.92;;;;;;;14.35;63.64;101050.31;4987558;28;20055;-82
2022/05/11 06:00:29;;;;;;;15.45;2.60;;;;;;;14.33;63.47;101043.41;4965338;28;20069;-80
2022/05/11 06:02:55;;;;;;;22.92;2.67;;;;;;;14.37;63.67;101053.63;4994461;28;20535;-80
2022/05/11 06:05:20;;;;;;;16.75;2.13;;;;;;;14.32;63.79;101047.13;4990738;28;20109;-79
2022/05/11 06:07:46;;;;;;;22.23;2.38;;;;;;;14.34;63.55;101053.19;4993414;28;20065;-80
2022/05/11 06:10:11;;;;;;;13.38;2.45;;;;;;;14.43;63.22;101047.41;4993434;28;20073;-81
2022/05/11 06:12:36;;;;;;;10.73;2.03;;;;;;;14.45;62.81;101052.59;4994785;28;20046;-81
2022/05/11 06:15:02;;;;;;;17.83;2.45;;;;;;;14.57;62.21;101051.03;4994296;28;20022;-84
2022/05/11 06:17:29;;;;;;;14.35;2.03;;;;;;;14.71;61.79;101047.31;4994178;28;20041;-82
2022/05/11 06:19:54;;;;;;;16.08;2.40;;;;;;;14.73;61.86;101052.53;4992714;28;20023;-81
2022/05/11 06:22:21;;;;;;;19.42;2.55;;;;;;;14.90;61.69;101067.41;4967387;28;20037;-85
2022/05/11 06:24:46;;;;;;;13.05;2.28;;;;;;;14.97;61.16;101051.13;4980626;28;20049;-82
2022/05/11 06:27:19;;;;;;;18.52;2.20;;;;;;;14.82;60.93;101053.19;4994556;28;20518;-79
2022/05/11 06:29:53;;;;;;;7.78;1.92;;;;;;;14.89;61.17;101048.63;4993043;28;20120;-80
2022/05/11 06:32:22;;;;;;;10.00;2.00;;;;;;;14.79;61.37;101061.72;4993547;28;20081;-80
2022/05/11 06:34:48;;;;;;;17.35;2.58;;;;;;;14.67;61.39;101043.34;4993939;28;22357;-83
2022/05/11 06:37:13;;;;;;;9.85;1.90;;;;;;;14.75;62.00;101049.63;4993356;28;20065;-81
2022/05/11 06:39:39;;;;;;;14.70;2.42;;;;;;;14.75;61.75;101049.63;4994220;28;20022;-82
2022/05/11 06:42:08;;;;;;;13.07;2.35;;;;;;;14.94;61.91;101046.13;4988547;28;20355;-81
2022/05/11 06:44:34;;;;;;;19.50;2.30;;;;;;;15.07;61.84;101059.69;4971332;28;20022;-80
2022/05/11 06:46:59;;;;;;;13.13;2.03;;;;;;;15.09;61.84;101060.34;4984389;28;20046;-79
2022/05/11 06:49:27;;;;;;;10.63;1.95;;;;;;;15.06;61.52;101049.91;4990708;28;20026;-79
2022/05/11 06:51:53;;;;;;;13.95;2.05;;;;;;;14.81;62.52;101059.66;4980848;28;20394;-80
2022/05/11 06:59:46;;;;;;;10.10;1.88;;;;;;;15.40;62.32;101048.03;4987542;28;20549;-80
2022/05/11 07:02:11;;;;;;;17.35;2.80;;;;;;;15.70;61.83;101043.03;4988555;28;20034;-79
2022/05/11 07:04:37;;;;;;;21.35;3.25;;;;;;;15.52;61.42;101046.38;4975920;28;20518;-82
2022/05/11 07:07:04;;;;;;;19.67;3.03;;;;;;;15.35;62.14;101042.41;4991946;28;20030;-80
2022/05/11 07:09:31;;;;;;;16.85;2.72;;;;;;;14.87;63.94;101034.44;4990670;28;20484;-80
2022/05/11 07:14:41;;;;;;;23.25;2.70;;;;;;;14.94;64.68;101043.41;4990270;28;20052;-77
2022/05/11 07:17:07;;;;;;;16.80;2.45;;;;;;;14.92;64.09;101035.47;4990598;28;20030;-78
2022/05/11 07:19:33;;;;;;;19.80;2.70;;;;;;;14.78;65.71;101051.94;4991677;28;20030;-79
2022/05/11 07:21:58;;;;;;;21.70;2.67;;;;;;;14.71;66.27;101043.78;4992157;28;20022;-79
2022/05/11 07:24:24;;;;;;;16.23;2.47;;;;;;;15.26;64.69;101044.47;4989976;28;20022;-79
2022/05/11 07:26:49;;;;;;;15.80;2.95;;;;;;;15.97;62.78;101041.09;4990264;28;20034;-81
2022/05/11 07:29:14;;;;;;;20.92;3.30;;;;;;;16.59;60.45;101032.53;4991286;28;20049;-77
2022/05/11 07:31:41;;;;;;;24.48;2.70;;;;;;;17.53;58.96;101044.44;4992550;28;20418;-79
2022/05/11 07:34:06;;;;;;;24.63;2.92;;;;;;;17.96;55.81;101051.81;5003553;28;20050;-82
2022/05/11 07:36:31;;;;;;;16.75;2.58;;;;;;;17.83;56.68;101050.06;4991884;28;20097;-77
2022/05/11 07:38:57;;;;;;;23.25;3.20;;;;;;;18.21;55.95;101052.56;4991559;28;20034;-79
2022/05/11 07:41:22;;;;;;;21.05;2.90;;;;;;;19.12;53.53;101047.19;4990245;28;20019;-80
2022/05/11 07:43:48;;;;;;;19.52;3.22;;;;;;;19.71;49.90;101055.47;4989332;28;20062;-79
2022/05/11 07:46:13;;;;;;;18.90;3.28;;;;;;;20.22;49.23;101056.63;4990325;28;20354;-79
2022/05/11 07:48:38;;;;;;;29.23;3.85;;;;;;;20.86;48.14;101062.00;4992372;28;20596;-79
2022/05/11 07:51:04;;;;;;;26.00;4.00;;;;;;;20.34;48.13;101053.84;4992405;28;20478;-80
2022/05/11 07:53:30;;;;;;;18.77;3.50;;;;;;;20.12;49.32;101067.31;4990745;28;20030;-81
2022/05/11 08:01:24;;;;;;;21.55;3.40;;;;;;;18.16;53.29;101059.75;4990175;28;20109;-82
2022/05/11 08:03:49;;;;;;;26.83;4.03;;;;;;;17.70;55.43;101050.97;4970894;28;20027;-81
2022/05/11 08:06:16;;;;;;;29.27;4.05;;;;;;;18.17;54.32;101056.81;4975482;28;20038;-83
2022/05/11 08:08:42;;;;;;;19.48;3.50;;;;;;;18.18;54.66;101053.00;4975829;28;20022;-80
2022/05/11 08:11:08;;;;;;;21.90;3.90;;;;;;;18.84;53.16;101067.72;4989878;28;20030;-80
2022/05/11 08:13:34;;;;;;;21.63;3.90;;;;;;;19.18;52.98;101061.78;4989705;28;20106;-79
2022/05/11 08:15:59;;;;;;;20.17;4.22;;;;;;;19.22;52.53;101068.41;4989136;28;20042;-79
2022/05/11 08:18:25;;;;;;;22.33;3.25;;;;;;;19.94;50.52;101065.56;4990199;28;20042;-82
2022/05/11 08:20:50;;;;;;;25.15;4.05;;;;;;;20.14;50.09;101070.63;4990105;28;20180;-79
2022/05/11 08:23:15;;;;;;;26.88;4.15;;;;;;;19.64;51.65;101065.63;4990045;28;20068;-80
2022/05/11 08:25:43;;;;;;;24.33;4.05;;;;;;;20.16;50.00;101071.22;4999890;28;20086;-80
2022/05/11 08:28:14;;;;;;;36.47;5.20;;;;;;;19.50;51.58;101057.66;4984877;28;20042;-79
2022/05/11 08:33:26;;;;;;;30.88;4.88;;;;;;;18.21;55.77;101068.06;4996019;28;20503;-80
2022/05/11 08:36:19;;;;;;;31.88;4.40;;;;;;;18.04;56.37;101058.84;5000134;28;20030;-81
2022/05/11 08:38:46;;;;;;;31.35;4.88;;;;;;;18.21;56.27;101068.91;4991068;28;20038;-80
2022/05/11 08:41:18;;;;;;;35.05;4.93;;;;;;;18.12;55.93;101064.81;4993937;28;20049;-79
2022/05/11 08:43:44;;;;;;;34.03;5.05;;;;;;;18.31;55.69;101068.38;4995429;28;20030;-79
2022/05/11 08:46:35;;;;;;;30.15;4.15;;;;;;;19.47;54.51;101074.53;4993641;28;20093;-80
2022/05/11 08:49:05;;;;;;;40.55;4.85;;;;;;;20.40;51.05;101072.00;4993789;28;20806;-80
2022/05/11 08:51:37;;;;;;;39.20;5.10;;;;;;;20.91;50.12;101066.75;4993098;28;20445;-81
2022/05/11 08:54:23;;;;;;;30.85;4.45;;;;;;;20.61;49.96;101067.81;4991822;28;20401;-81
2022/05/11 08:56:49;;;;;;;33.65;5.32;;;;;;;21.36;49.21;101060.44;4991390;28;20102;-82
2022/05/11 08:59:20;;;;;;;31.48;4.47;;;;;;;19.70;51.47;101071.00;4993196;28;20026;-81
2022/05/11 09:01:51;;;;;;;34.72;4.20;;;;;;;19.47;53.53;101081.88;4989171;28;20429;-82
2022/05/11 09:04:19;;;;;;;39.88;5.38;;;;;;;18.81;54.05;101064.63;4992045;28;20391;-81
2022/05/11 09:06:45;;;;;;;37.78;5.40;;;;;;;18.91;54.51;101064.91;4975911;28;20070;-79
2022/05/11 09:09:11;;;;;;;34.38;4.22;;;;;;;19.30;54.53;101065.38;4992810;28;20104;-81
2022/05/11 09:11:43;;;;;;;30.55;4.55;;;;;;;19.32;53.59;101076.88;4992798;28;20077;-81
2022/05/11 09:14:12;;;;;;;31.67;4.72;;;;;;;18.61;55.59;101078.47;4977902;28;20039;-80
2022/05/11 09:16:39;;;;;;;31.83;5.43;;;;;;;18.83;55.15;101074.25;4983280;28;20034;-80
2022/05/11 09:19:23;;;;;;;39.90;5.28;;;;;;;18.78;55.53;101078.72;4992235;28;20031;-80
2022/05/11 09:21:56;;;;;;;38.70;5.68;;;;;;;19.58;54.49;101072.03;4998362;28;20522;-79
2022/05/11 09:24:31;;;;;;;36.25;5.70;;;;;;;20.26;51.59;101071.44;5002049;28;20030;-80
2022/05/11 09:27:05;;;;;;;36.35;4.95;;;;;;;20.49;50.91;101078.75;4999104;28;20038;-81
2022/05/11 09:29:42;;;;;;;36.60;5.55;;;;;;;20.24;51.52;101075.47;4998553;28;20090;-78
2022/05/11 09:32:19;;;;;;;38.78;5.13;;;;;;;19.68;52.56;101069.59;4993750;28;20122;-79
2022/05/11 09:34:45;;;;;;;35.45;5.82;;;;;;;19.76;51.76;101073.88;4981478;28;20051;-81
2022/05/11 09:37:32;;;;;;;33.08;4.65;;;;;;;20.07;51.84;101069.94;4960303;28;20031;-80
2022/05/11 09:40:20;;;;;;;;;;;;;;;19.97;51.44;101072.44;4961720;28;20034;-81
2022/05/11 09:43:02;;;;;;;28.55;4.38;;;;;;;19.87;52.07;101073.84;4958123;28;19934;-77
2022/05/11 09:45:34;;;;;;;35.03;4.68;;;;;;;19.94;51.70;101066.38;4965313;28;20038;-80
2022/05/11 09:48:07;;;;;;;30.35;4.47;;;;;;;20.90;49.25;101067.81;4980932;28;20034;-80
2022/05/11 09:50:33;;;;;;;27.92;4.28;;;;;;;21.85;47.10;101069.72;4969254;28;20120;-80
2022/05/11 09:53:09;;;;;;;35.00;4.57;;;;;;;21.66;45.34;101066.41;4960162;28;20062;-81
2022/05/11 09:55:34;;;;;;;33.05;4.53;;;;;;;20.99;46.94;101071.81;4975890;28;20035;-80
2022/05/11 09:58:07;;;;;;;30.00;3.92;;;;;;;21.79;45.99;101069.88;4955684;28;20054;-81
2022/05/11 10:00:39;;;;;;;22.20;4.03;;;;;;;21.85;45.42;101063.38;4934650;28;20411;-81
2022/05/11 10:03:10;;;;;;;20.63;3.80;;;;;;;22.45;44.60;101065.31;4958014;28;20027;-81
2022/05/11 10:05:43;;;;;;;22.60;4.10;;;;;;;22.86;43.12;101065.81;4958592;28;20060;-82
2022/05/11 10:08:22;;;;;;;28.00;4.18;;;;;;;23.38;42.36;101069.88;4958122;28;20030;-81
2022/05/11 10:10:50;;;;;;;29.33;4.45;;;;;;;23.78;41.90;101069.41;4956972;28;20026;-81
2022/05/11 10:13:28;;;;;;;35.20;4.07;;;;;;;22.90;41.78;101068.84;4957077;28;20038;-80
2022/05/11 10:21:56;;;;;;;26.48;3.97;;;;;;;21.58;42.85;101074.22;4975392;28;20126;-82
2022/05/11 10:24:40;;;;;;;;;;;;;;;22.51;41.52;101072.56;4957914;28;20034;-83
2022/05/11 10:27:43;;;;;;;22.33;3.40;;;;;;;22.42;42.09;101079.56;4957259;28;19909;-79
2022/05/11 10:30:23;;;;;;;20.73;3.33;;;;;;;22.67;41.02;101075.44;4974378;28;20023;-78
2022/05/11 10:33:16;;;;;;;20.35;3.67;;;;;;;22.96;40.22;101074.19;4956612;28;20035;-80
2022/05/11 10:36:29;;;;;;;22.02;3.15;;;;;;;22.74;41.24;101073.34;4976498;28;20467;-83
2022/05/11 10:39:05;;;;;;;24.17;3.75;;;;;;;22.04;42.00;101075.75;4863507;29;20051;-79
2022/05/11 10:41:48;;;;;;;30.75;4.20;;;;;;;21.51;43.56;101074.38;4928462;28;20043;-83
2022/05/11 10:44:35;;;;;;;30.67;4.25;;;;;;;21.01;45.28;101058.69;4942077;28;20031;-80
2022/05/11 10:47:38;;;;;;;23.05;3.40;;;;;;;22.18;42.11;101056.19;4974609;28;20038;-82
2022/05/11 10:50:24;;;;;;;28.98;3.72;;;;;;;23.10;40.03;101057.28;4973519;28;20031;-80
2022/05/11 10:53:04;;;;;;;29.27;3.63;;;;;;;23.09;38.92;101061.09;4972465;28;20043;-82
2022/05/11 10:55:56;;;;;;;19.80;3.05;;;;;;;23.37;37.62;101069.03;4973274;28;20035;-80
2022/05/11 10:58:30;;;;;;;26.08;3.42;;;;;;;22.20;39.53;101070.50;4970162;28;20047;-79
2022/05/11 11:00:58;;;;;;;29.05;3.55;;;;;;;22.72;39.62;101072.75;4973445;28;20027;-80
2022/05/11 11:03:35;;;;;;;19.80;2.63;;;;;;;22.63;37.93;101071.56;4975173;28;20034;-81
2022/05/11 11:09:43;;;;;;;14.98;2.63;;;;;;;22.32;38.74;101072.00;4937111;29;20031;-78
2022/05/11 11:12:32;;;;;;;18.65;2.92;;;;;;;22.00;39.87;101069.09;4903443;29;20103;-80
2022/05/11 11:15:00;;;;;;;14.13;3.08;;;;;;;21.48;39.32;101058.44;4967088;28;20483;-79
2022/05/11 11:17:26;;;;;;;15.25;2.63;;;;;;;21.66;39.44;101066.41;4958646;28;20019;-79
2022/05/11 11:19:55;;;;;;;13.20;2.65;;;;;;;22.16;38.84;101058.34;4961304;28;20035;-79
2022/05/11 11:22:20;;;;;;;19.75;3.53;;;;;;;22.74;38.18;101059.63;4958926;28;20034;-79
2022/05/11 11:25:14;;;;;;;27.50;3.20;;;;;;;23.11;37.20;101054.25;4958039;28;20375;-79
2022/05/11 11:28:01;;;;;;;21.48;2.90;;;;;;;23.57;36.26;101053.84;4974907;28;20054;-79
2022/05/11 11:30:26;;;;;;;16.42;2.83;;;;;;;22.52;36.85;101057.75;4977133;28;20082;-82
2022/05/11 11:33:12;;;;;;;19.73;3.00;;;;;;;22.36;38.36;101044.94;4977800;28;20530;-79
2022/05/11 11:36:00;;;;;;;28.92;3.47;;;;;;;23.20;37.15;101044.47;4961556;28;20120;-78
2022/05/11 11:38:38;;;;;;;21.50;3.03;;;;;;;23.49;36.43;101029.59;4962069;28;20027;-78
2022/05/11 11:41:21;;;;;;;16.65;2.88;;;;;;;23.40;36.83;101024.56;4982413;28;20027;-79
2022/05/11 11:43:49;;;;;;;32.92;3.70;;;;;;;24.02;36.10;101036.81;4966975;28;20113;-80
2022/05/11 11:46:41;;;;;;;25.98;3.95;;;;;;;23.02;37.87;101019.31;4972740;28;20049;-80
2022/05/11 11:49:10;;;;;;;26.63;4.18;;;;;;;22.70;38.29;101020.91;4989696;28;20058;-82
2022/05/11 11:51:50;;;;;;;26.27;3.88;;;;;;;23.48;38.20;101022.44;4964386;28;20442;-79
2022/05/11 11:54:26;;;;;;;21.95;3.78;;;;;;;24.10;37.36;101013.50;4973927;28;20085;-79
2022/05/11 11:57:04;;;;;;;24.88;3.88;;;;;;;23.72;38.17;101026.47;4956416;28;20150;-81
2022/05/11 11:59:29;;;;;;;33.47;4.68;;;;;;;23.38;38.85;101026.78;4955836;29;20130;-79
2022/05/11 12:02:06;;;;;;;28.73;4.27;;;;;;;23.27;38.61;101032.44;4951165;28;20050;-80
2022/05/11 12:04:35;;;;;;;24.48;4.32;;;;;;;22.89;39.88;101006.81;4960015;28;20376;-83
2022/05/11 12:15:35;;;;;;;29.88;4.80;;;;;;;23.33;39.84;101018.50;4958317;29;20050;-78
2022/05/11 12:18:31;;;;;;;27.13;4.57;;;;;;;22.76;40.29;101043.72;4962176;29;20106;-81